Time;durP1;ratioP1;P1;durP2;ratioP2;P2;SDS_P1;SDS_P2;PMS_P1;PMS_P2;Temp;Humidity;BMP_temperature;BMP_pressure;BME280_temperature;BME280_humidity;BME280_pressure;Samples;Min_cycle;Max_cycle;Signal;HPM_P1;HPM_P2
2023/04/25 00:01:59;;;;;;;5.10;4.00;;;;;;;9.77;58.37;98832.62;107055;1262;62166;-38
2023/04/25 00:04:27;;;;;;;6.90;4.60;;;;;;;9.83;58.34;98828.15;107162;1257;62672;-38
2023/04/25 00:06:55;;;;;;;6.10;4.10;;;;;;;9.88;58.28;98828.35;107084;1257;74439;-38
2023/04/25 00:09:22;;;;;;;4.60;3.90;;;;;;;9.89;58.29;98824.20;107168;1261;70261;-38
2023/04/25 00:11:50;;;;;;;5.60;4.00;;;;;;;9.89;58.21;98822.65;107142;1260;74104;-39
2023/04/25 00:14:17;;;;;;;7.60;4.00;;;;;;;9.91;58.18;98825.85;107164;1257;62597;-38
2023/04/25 00:16:44;;;;;;;6.00;4.10;;;;;;;9.90;58.05;98829.17;107149;1262;62341;-38
2023/04/25 00:19:13;;;;;;;8.00;4.30;;;;;;;9.88;58.14;98829.66;107175;1262;75240;-38
2023/04/25 00:21:41;;;;;;;6.10;4.10;;;;;;;9.84;58.22;98826.29;107232;1257;68990;-38
2023/04/25 00:24:08;;;;;;;7.80;4.10;;;;;;;9.79;58.41;98824.29;107186;1257;73454;-38
2023/04/25 00:26:35;;;;;;;6.50;4.40;;;;;;;9.71;58.54;98826.66;107175;1257;62345;-38
2023/04/25 00:29:03;;;;;;;8.60;4.20;;;;;;;9.62;58.72;98822.59;107036;1257;61424;-38
2023/04/25 00:31:30;;;;;;;6.80;4.50;;;;;;;9.53;58.96;98819.52;107216;1258;75212;-37
2023/04/25 00:33:58;;;;;;;7.20;4.40;;;;;;;9.46;59.10;98819.98;107137;1257;68697;-37
2023/04/25 00:36:25;;;;;;;8.00;4.50;;;;;;;9.39;59.24;98814.08;107047;1258;75052;-38
2023/04/25 00:38:54;;;;;;;6.30;3.80;;;;;;;9.40;59.39;98816.25;107151;1257;62712;-38
2023/04/25 00:41:21;;;;;;;8.60;4.30;;;;;;;9.40;59.40;98813.69;107216;1262;62313;-38
2023/04/25 00:43:49;;;;;;;8.10;4.00;;;;;;;9.40;59.44;98814.00;107222;1257;75659;-38
2023/04/25 00:46:17;;;;;;;9.00;4.80;;;;;;;9.43;59.38;98810.56;107019;1257;67161;-38
2023/04/25 00:48:45;;;;;;;7.10;4.50;;;;;;;9.43;59.28;98811.81;107183;1263;74994;-38
2023/04/25 00:51:19;;;;;;;7.00;4.20;;;;;;;9.39;59.37;98811.77;107190;1257;62665;-38
2023/04/25 00:53:46;;;;;;;5.50;4.30;;;;;;;9.35;59.51;98812.93;107182;1262;62466;-38
2023/04/25 00:56:14;;;;;;;10.10;4.50;;;;;;;9.30;59.61;98810.75;107094;1263;75051;-38
2023/04/25 00:58:42;;;;;;;6.30;4.20;;;;;;;9.26;59.82;98810.94;107063;1257;69150;-38
2023/04/25 01:01:10;;;;;;;6.60;4.50;;;;;;;9.23;59.94;98805.80;107156;1260;74061;-38
2023/04/25 01:03:40;;;;;;;6.30;4.50;;;;;;;9.20;59.96;98803.42;107099;1262;62619;-38
2023/04/25 01:06:12;;;;;;;8.10;4.30;;;;;;;9.17;60.16;98799.52;107175;1257;60183;-38
2023/04/25 01:08:39;;;;;;;6.40;3.60;;;;;;;9.19;60.11;98802.09;107178;1263;75389;-38
2023/04/25 01:11:06;;;;;;;5.80;4.20;;;;;;;9.24;60.16;98800.63;107133;1257;70159;-38
2023/04/25 01:13:34;;;;;;;5.90;4.10;;;;;;;9.26;60.21;98800.36;107091;1258;74735;-39
2023/04/25 01:16:01;;;;;;;8.10;4.40;;;;;;;9.28;60.15;98799.14;107275;1257;63273;-39
2023/04/25 01:18:28;;;;;;;8.90;4.70;;;;;;;9.30;60.20;98798.33;107188;1262;62647;-39
2023/04/25 01:20:56;;;;;;;8.70;4.70;;;;;;;9.32;60.03;98794.25;107227;1257;75145;-39
2023/04/25 01:23:23;;;;;;;6.90;4.70;;;;;;;9.30;59.94;98794.45;107048;1257;69159;-39
2023/04/25 01:25:51;;;;;;;6.30;4.90;;;;;;;9.26;60.09;98793.31;107257;1262;72529;-39
2023/04/25 01:28:18;;;;;;;6.80;5.10;;;;;;;9.22;60.20;98792.02;107047;1259;59836;-39
2023/04/25 01:30:45;;;;;;;7.40;4.90;;;;;;;9.16;60.37;98791.09;107207;1262;61682;-39
2023/04/25 01:33:14;;;;;;;7.90;5.00;;;;;;;9.12;60.44;98792.33;107155;1257;73364;-39
2023/04/25 01:35:41;;;;;;;9.10;5.20;;;;;;;9.08;60.62;98792.73;107217;1262;70224;-39
2023/04/25 01:38:08;;;;;;;6.60;4.40;;;;;;;9.04;60.79;98790.06;107145;1257;73778;-39
2023/04/25 01:40:37;;;;;;;7.80;5.40;;;;;;;9.04;60.82;98786.20;107009;1263;63875;-38
2023/04/25 01:43:04;;;;;;;7.10;4.30;;;;;;;9.08;60.87;98782.69;106972;1257;62373;-38
2023/04/25 01:45:32;;;;;;;7.80;4.50;;;;;;;9.09;60.89;98782.79;107079;1257;74695;-38
2023/04/25 01:48:00;;;;;;;7.80;4.90;;;;;;;9.09;60.97;98781.56;107127;1258;70334;-38
2023/04/25 01:50:27;;;;;;;7.40;5.30;;;;;;;9.09;60.93;98781.02;107189;1262;75119;-38
2023/04/25 01:52:55;;;;;;;8.10;4.60;;;;;;;9.12;60.95;98781.08;107264;1260;61208;-38
2023/04/25 01:55:22;;;;;;;6.90;4.70;;;;;;;9.12;60.85;98783.38;107136;1257;61702;-38
2023/04/25 01:57:59;;;;;;;8.10;4.70;;;;;;;9.10;60.91;98778.70;107236;1258;75879;-38
2023/04/25 02:00:42;;;;;;;8.00;5.10;;;;;;;9.10;60.93;98776.55;107182;1260;66877;-38
2023/04/25 02:03:09;;;;;;;8.70;5.10;;;;;;;9.09;61.09;98772.75;107161;1261;76280;-38
2023/04/25 02:05:37;;;;;;;6.10;5.10;;;;;;;9.08;61.10;98772.58;107258;1258;59947;-38
2023/04/25 02:08:08;;;;;;;9.80;4.90;;;;;;;9.05;61.23;98770.08;107008;1264;62372;-38
2023/04/25 02:10:35;;;;;;;8.90;4.80;;;;;;;9.02;61.37;98764.98;107213;1257;73869;-38
2023/04/25 02:13:14;;;;;;;6.30;4.60;;;;;;;9.10;61.35;98762.80;107264;1262;69106;-38
2023/04/25 02:15:53;;;;;;;6.00;4.80;;;;;;;9.15;61.27;98764.81;107202;1258;73621;-38
2023/04/25 02:18:21;;;;;;;7.40;4.50;;;;;;;9.19;61.26;98763.08;107199;1257;61181;-38
2023/04/25 02:20:48;;;;;;;6.00;4.50;;;;;;;9.23;61.20;98759.27;107058;1257;62255;-38
2023/04/25 02:23:15;;;;;;;8.50;5.00;;;;;;;9.27;60.97;98760.95;107235;1257;74963;-39
2023/04/25 02:25:43;;;;;;;6.40;5.10;;;;;;;9.29;60.92;98761.35;107098;1257;70263;-38
2023/04/25 02:28:10;;;;;;;7.80;5.00;;;;;;;9.27;60.78;98765.13;107068;1262;73902;-38
2023/04/25 02:30:38;;;;;;;6.00;4.80;;;;;;;9.22;60.94;98761.51;107079;1257;61876;-38
2023/04/25 02:33:05;;;;;;;7.60;5.10;;;;;;;9.13;61.17;98760.37;107075;1257;60851;-39
2023/04/25 02:35:32;;;;;;;10.10;5.30;;;;;;;9.05;61.36;98758.08;107187;1262;76159;-38
2023/04/25 02:37:59;;;;;;;7.50;4.90;;;;;;;8.97;61.60;98757.88;107216;1257;70224;-38
2023/04/25 02:40:27;;;;;;;6.10;4.10;;;;;;;8.91;61.88;98757.71;107208;1261;73495;-38
2023/04/25 02:42:54;;;;;;;7.10;4.50;;;;;;;8.93;62.00;98758.29;107099;1263;62353;-38
2023/04/25 02:45:21;;;;;;;6.80;4.70;;;;;;;8.94;61.99;98756.15;107123;1257;61173;-38
2023/04/25 02:47:49;;;;;;;8.00;4.80;;;;;;;8.95;62.05;98757.30;107311;1257;74454;-38
2023/04/25 02:50:19;;;;;;;8.10;5.10;;;;;;;8.97;62.04;98758.27;107191;1257;68960;-38
2023/04/25 02:52:46;;;;;;;8.40;5.30;;;;;;;8.97;61.95;98762.98;107076;1262;73039;-38
2023/04/25 02:55:17;;;;;;;;;;;;;;;8.97;61.95;98762.67;107278;1258;60659;-38
2023/04/25 02:57:44;;;;;;;8.20;4.90;;;;;;;8.89;61.99;98762.08;107260;1257;61062;-38
2023/04/25 03:00:15;;;;;;;7.70;5.30;;;;;;;8.75;62.27;98752.35;107244;1257;76163;-39
2023/04/25 03:02:42;;;;;;;9.20;5.50;;;;;;;8.72;62.46;98763.42;107297;1258;68292;-39
2023/04/25 03:05:09;;;;;;;8.00;4.90;;;;;;;8.65;62.58;98766.88;107062;1263;74988;-39
2023/04/25 03:07:39;;;;;;;6.80;4.70;;;;;;;8.65;62.72;98765.70;107215;1263;63076;-39
2023/04/25 03:10:07;;;;;;;10.40;5.40;;;;;;;8.70;62.82;98769.80;107060;1257;60741;-39
2023/04/25 03:12:34;;;;;;;6.70;4.70;;;;;;;8.72;62.92;98770.69;107120;1263;75155;-38
2023/04/25 03:15:04;;;;;;;8.20;5.30;;;;;;;8.74;62.94;98766.70;107125;1257;68218;-38
2023/04/25 03:17:31;;;;;;;7.80;5.00;;;;;;;8.75;62.90;98768.04;107090;1263;73485;-38
2023/04/25 03:19:59;;;;;;;9.90;5.60;;;;;;;8.76;62.96;98768.28;107164;1257;62415;-38
2023/04/25 03:22:27;;;;;;;8.60;5.20;;;;;;;8.76;63.02;98771.06;107183;1261;60773;-38
2023/04/25 03:24:55;;;;;;;6.30;4.90;;;;;;;8.74;63.09;98771.65;106455;1262;1003787;-38
2023/04/25 03:27:22;;;;;;;6.60;4.90;;;;;;;8.73;63.24;98773.86;107112;1262;70285;-38
2023/04/25 03:29:50;;;;;;;7.40;5.50;;;;;;;8.74;63.28;98768.25;107241;1257;74866;-38
2023/04/25 03:32:18;;;;;;;9.20;4.70;;;;;;;8.77;63.40;98766.75;107023;1259;64362;-38
2023/04/25 03:34:45;;;;;;;6.80;4.80;;;;;;;8.83;63.41;98765.54;107179;1257;61433;-38
2023/04/25 03:37:13;;;;;;;7.80;5.20;;;;;;;8.91;63.38;98768.84;107149;1257;74225;-39
2023/04/25 03:39:40;;;;;;;7.40;5.20;;;;;;;8.94;63.32;98767.81;107139;1257;70312;-38
2023/04/25 03:42:07;;;;;;;9.30;5.30;;;;;;;8.96;63.36;98769.15;107039;1261;73729;-39
2023/04/25 03:44:35;;;;;;;7.80;5.40;;;;;;;8.98;63.39;98766.23;107015;1257;60706;-39
2023/04/25 03:47:02;;;;;;;8.40;5.00;;;;;;;9.00;63.39;98764.58;107038;1257;60441;-38
2023/04/25 03:49:30;;;;;;;9.20;5.70;;;;;;;9.01;63.46;98767.45;107171;1257;76092;-39
2023/04/25 03:52:00;;;;;;;7.80;5.60;;;;;;;9.00;63.57;98763.66;107034;1258;71084;-39
2023/04/25 03:54:30;;;;;;;8.50;5.40;;;;;;;8.99;63.81;98763.64;107002;1257;74993;-39
2023/04/25 03:57:13;;;;;;;9.80;5.20;;;;;;;9.04;63.92;98763.64;107058;1257;63198;-39
2023/04/25 03:59:42;;;;;;;11.40;5.50;;;;;;;9.09;63.99;98765.33;107131;1263;61547;-39
2023/04/25 04:02:10;;;;;;;8.60;5.40;;;;;;;9.14;64.18;98767.80;107167;1257;74960;-39
2023/04/25 04:04:38;;;;;;;7.00;5.70;;;;;;;9.20;64.23;98767.80;107276;1257;70398;-39
2023/04/25 04:07:06;;;;;;;7.60;5.50;;;;;;;9.23;64.36;98765.70;107083;1258;75025;-39
2023/04/25 04:09:36;;;;;;;8.70;5.90;;;;;;;9.26;64.42;98766.27;107275;1257;61450;-39
2023/04/25 04:12:07;;;;;;;10.90;5.00;;;;;;;9.28;64.50;98769.16;107036;1257;61504;-39
2023/04/25 04:14:38;;;;;;;8.90;4.10;;;;;;;9.35;64.43;98760.45;107193;1263;74544;-40
2023/04/25 04:17:05;;;;;;;10.60;5.60;;;;;;;9.51;64.39;98768.79;107092;1257;70713;-39
2023/04/25 04:19:33;;;;;;;7.00;5.20;;;;;;;9.57;64.46;98764.69;107249;1257;74843;-40
2023/04/25 04:22:17;;;;;;;8.80;5.60;;;;;;;9.64;64.44;98760.83;107199;1257;62463;-39
2023/04/25 04:24:47;;;;;;;8.50;5.50;;;;;;;9.69;64.44;98760.99;107281;1261;60323;-39
2023/04/25 04:27:21;;;;;;;10.10;5.40;;;;;;;9.76;64.58;98757.67;107056;1258;74619;-40
2023/04/25 04:29:53;;;;;;;8.90;5.20;;;;;;;9.85;64.50;98758.92;107026;1263;70060;-40
2023/04/25 04:32:30;;;;;;;8.00;4.90;;;;;;;9.95;64.51;98755.65;107257;1257;74474;-40
2023/04/25 04:34:57;;;;;;;6.60;5.30;;;;;;;10.03;64.28;98754.89;107181;1262;60695;-40
2023/04/25 04:37:25;;;;;;;6.60;5.50;;;;;;;10.12;64.14;98756.45;107112;1257;62676;-39
2023/04/25 04:39:52;;;;;;;8.80;5.90;;;;;;;10.21;63.84;98757.52;107088;1257;75604;-40
2023/04/25 04:42:38;;;;;;;10.50;5.90;;;;;;;10.29;63.58;98760.77;107245;1257;68355;-40
2023/04/25 04:45:17;;;;;;;9.80;5.90;;;;;;;10.30;63.63;98754.20;107205;1258;73486;-40
2023/04/25 04:47:55;;;;;;;13.00;5.30;;;;;;;10.40;63.41;98760.50;106294;1263;1003012;-40
2023/04/25 04:50:47;;;;;;;11.60;5.30;;;;;;;10.58;63.03;98760.81;107242;1257;61094;-40
2023/04/25 04:53:33;;;;;;;9.50;5.60;;;;;;;10.70;62.83;98764.48;107196;1257;75573;-40
2023/04/25 04:56:30;;;;;;;7.70;5.60;;;;;;;10.81;62.52;98756.91;107197;1263;68716;-39
2023/04/25 04:59:24;;;;;;;8.80;5.70;;;;;;;10.93;62.26;98757.93;106900;1257;74954;-40
2023/04/25 05:02:23;;;;;;;6.10;4.20;;;;;;;11.04;62.11;98757.23;107010;1257;62545;-40
2023/04/25 05:05:01;;;;;;;12.90;5.70;;;;;;;11.13;61.91;98760.17;107091;1257;60533;-40
2023/04/25 05:07:49;;;;;;;7.00;5.40;;;;;;;11.22;61.02;98756.44;107250;1257;74115;-40
2023/04/25 05:10:29;;;;;;;7.70;5.30;;;;;;;11.29;60.82;98756.88;107146;1263;68801;-39
2023/04/25 05:13:05;;;;;;;9.90;5.60;;;;;;;11.37;60.84;98757.30;107189;1257;74993;-40
2023/04/25 05:16:01;;;;;;;6.70;5.00;;;;;;;11.47;60.41;98750.30;107017;1257;62644;-40
2023/04/25 05:18:46;;;;;;;10.50;5.90;;;;;;;11.55;60.31;98743.20;107207;1257;60572;-40
2023/04/25 05:21:43;;;;;;;7.50;5.60;;;;;;;11.65;59.95;98742.79;107239;1257;75833;-39
2023/04/25 05:24:30;;;;;;;6.50;5.40;;;;;;;11.74;59.94;98746.25;107176;1257;70316;-40
2023/04/25 05:27:30;;;;;;;8.70;5.90;;;;;;;11.85;59.66;98746.09;106887;1257;75159;-40
2023/04/25 05:30:15;;;;;;;12.30;5.90;;;;;;;11.96;59.54;98745.20;107104;1257;62188;-40
2023/04/25 05:33:02;;;;;;;9.90;6.30;;;;;;;12.07;59.51;98738.70;107091;1258;60785;-39
2023/04/25 05:35:29;;;;;;;8.10;6.00;;;;;;;12.17;58.49;98735.32;107155;1257;72550;-39
2023/04/25 05:37:57;;;;;;;8.70;5.60;;;;;;;12.29;58.14;98739.46;107040;1257;68541;-40
2023/04/25 05:40:41;;;;;;;8.00;5.00;;;;;;;12.41;58.00;98739.23;107065;1257;71974;-40
2023/04/25 05:43:17;;;;;;;7.60;4.80;;;;;;;12.53;57.71;98736.23;107180;1257;60626;-39
2023/04/25 05:45:54;;;;;;;6.70;5.20;;;;;;;12.67;57.04;98732.05;107201;1261;62680;-39
2023/04/25 05:48:41;;;;;;;6.10;4.90;;;;;;;12.82;55.85;98731.19;107181;1264;74796;-40
2023/04/25 05:51:28;;;;;;;7.20;4.70;;;;;;;12.95;54.95;98723.25;107108;1257;69035;-40
2023/04/25 05:54:14;;;;;;;5.90;4.20;;;;;;;13.08;54.01;98725.35;107200;1257;74936;-39
2023/04/25 05:56:42;;;;;;;9.60;4.90;;;;;;;13.20;53.55;98722.40;107254;1257;61732;-40
2023/04/25 05:59:09;;;;;;;8.40;4.90;;;;;;;13.32;52.43;98725.79;107206;1258;61680;-40
2023/04/25 06:01:37;;;;;;;7.20;4.90;;;;;;;13.41;51.08;98724.05;107169;1257;73225;-40
2023/04/25 06:04:05;;;;;;;10.20;4.80;;;;;;;13.52;51.12;98720.75;107000;1257;70268;-40
2023/04/25 06:06:33;;;;;;;6.20;4.20;;;;;;;13.66;49.45;98716.52;107099;1262;73685;-39
2023/04/25 06:09:00;;;;;;;5.80;4.40;;;;;;;13.78;48.69;98716.14;107042;1258;62261;-39
2023/04/25 06:11:27;;;;;;;7.70;4.00;;;;;;;13.92;46.94;98718.73;107228;1257;62989;-39
2023/04/25 06:13:54;;;;;;;5.50;4.40;;;;;;;14.05;46.88;98714.52;107146;1262;76109;-39
2023/04/25 06:16:22;;;;;;;7.90;4.20;;;;;;;14.18;46.65;98713.52;107129;1257;69106;-39
2023/04/25 06:18:50;;;;;;;8.60;4.10;;;;;;;14.31;46.29;98711.81;107133;1257;74059;-39
2023/04/25 06:21:17;;;;;;;7.20;4.30;;;;;;;14.45;45.59;98710.18;107147;1257;62576;-40
2023/04/25 06:23:44;;;;;;;10.80;4.00;;;;;;;14.60;44.29;98708.83;107062;1257;61107;-40
2023/04/25 06:26:19;;;;;;;5.10;3.80;;;;;;;14.73;43.16;98708.71;107216;1258;74572;-40
2023/04/25 06:28:46;;;;;;;4.80;3.30;;;;;;;14.84;42.53;98708.54;107158;1257;67533;-40
2023/04/25 06:31:15;;;;;;;6.00;3.80;;;;;;;14.89;42.81;98698.05;107166;1262;73857;-39
2023/04/25 06:33:42;;;;;;;8.10;3.50;;;;;;;15.05;42.83;98706.41;107147;1257;62525;-38
2023/04/25 06:36:10;;;;;;;5.90;4.00;;;;;;;15.16;42.61;98705.20;107235;1258;62381;-38
2023/04/25 06:38:37;;;;;;;5.10;3.60;;;;;;;15.25;43.21;98700.20;107258;1257;72409;-39
2023/04/25 06:41:05;;;;;;;7.10;3.90;;;;;;;15.36;43.57;98694.69;107216;1257;67369;-39
2023/04/25 06:43:34;;;;;;;7.20;3.80;;;;;;;15.50;43.51;98700.80;107240;1262;73484;-39
2023/04/25 06:46:22;;;;;;;5.00;3.70;;;;;;;15.66;42.96;98691.02;107200;1257;60549;-39
2023/04/25 06:48:50;;;;;;;7.30;3.70;;;;;;;15.78;43.27;98691.17;107316;1257;61272;-39
2023/04/25 06:51:18;;;;;;;6.50;3.50;;;;;;;15.92;42.88;98689.20;107255;1257;74061;-39
2023/04/25 06:53:45;;;;;;;9.00;3.60;;;;;;;16.05;43.22;98690.98;107198;1257;66959;-39
2023/04/25 06:56:23;;;;;;;6.50;3.80;;;;;;;16.22;43.47;98689.87;107222;1257;72813;-39
2023/04/25 06:58:56;;;;;;;5.00;3.60;;;;;;;16.40;43.38;98690.47;107198;1257;60602;-39
2023/04/25 07:01:29;;;;;;;9.60;3.60;;;;;;;16.58;42.17;98690.02;107217;1257;61424;-39
2023/04/25 07:03:57;;;;;;;5.70;3.20;;;;;;;16.70;40.83;98688.99;107243;1257;74800;-39
2023/04/25 14:02:55;;;;;;;4.00;2.20;;;;;;;24.17;23.69;98365.10;105095;1281;613338;-39
2023/04/25 14:05:22;;;;;;;3.50;2.20;;;;;;;24.41;23.18;98362.48;106567;1263;173307;-39
2023/04/25 14:07:50;;;;;;;3.70;2.00;;;;;;;24.23;23.14;98366.52;106934;1264;60140;-39
2023/04/25 14:10:17;;;;;;;5.30;2.10;;;;;;;24.12;23.08;98368.00;106709;1264;73366;-39
2023/04/25 14:12:44;;;;;;;4.60;2.00;;;;;;;24.02;23.47;98366.94;106824;1264;68677;-39
2023/04/25 14:15:11;;;;;;;3.70;2.00;;;;;;;23.90;23.17;98362.37;106863;1264;73972;-39
2023/04/25 14:17:39;;;;;;;3.60;1.80;;;;;;;23.78;23.81;98365.80;106808;1265;61601;-39
2023/04/25 14:20:08;;;;;;;3.80;2.10;;;;;;;23.78;23.60;98364.83;107349;1260;59997;-39
2023/04/25 14:22:36;;;;;;;3.40;2.10;;;;;;;23.84;23.09;98361.81;107274;1258;73373;-39
2023/04/25 14:25:05;;;;;;;2.20;1.90;;;;;;;23.96;23.03;98359.52;107351;1257;68864;-39
2023/04/25 14:27:32;;;;;;;3.90;1.80;;;;;;;24.15;23.36;98355.67;107301;1257;73650;-39
2023/04/25 14:29:59;;;;;;;2.80;2.00;;;;;;;24.57;22.80;98350.36;107343;1258;61442;-39
2023/04/25 14:32:26;;;;;;;4.50;2.10;;;;;;;25.08;22.46;98344.02;107429;1255;60351;-39
2023/04/25 14:34:53;;;;;;;2.90;1.90;;;;;;;25.52;22.44;98348.44;107342;1258;74053;-39
2023/04/25 14:37:20;;;;;;;2.90;2.00;;;;;;;25.95;21.53;98347.64;107351;1258;69067;-39
2023/04/25 14:39:47;;;;;;;2.70;1.70;;;;;;;26.15;21.44;98345.58;107268;1260;73874;-39
2023/04/25 14:42:15;;;;;;;4.70;2.30;;;;;;;26.24;21.41;98340.84;107271;1260;61652;-39
2023/04/25 14:44:42;;;;;;;2.90;1.80;;;;;;;26.27;21.39;98344.55;107266;1260;61506;-39
2023/04/25 14:47:09;;;;;;;4.20;2.00;;;;;;;26.53;21.20;98338.76;107245;1260;74258;-40
2023/04/25 14:49:36;;;;;;;4.00;2.00;;;;;;;26.97;19.96;98336.73;107279;1260;69141;-39
2023/04/25 14:52:04;;;;;;;3.10;2.20;;;;;;;27.16;19.34;98330.52;107304;1260;73645;-39
2023/04/25 14:54:32;;;;;;;3.40;1.70;;;;;;;27.37;18.89;98334.23;107254;1258;61689;-39
2023/04/25 14:56:59;;;;;;;2.70;1.90;;;;;;;27.36;18.65;98334.11;107356;1257;60872;-39
2023/04/25 14:59:26;;;;;;;4.30;2.00;;;;;;;27.41;19.18;98330.59;107320;1260;73607;-40
2023/04/25 15:01:54;;;;;;;4.00;2.00;;;;;;;27.56;18.56;98327.20;107372;1257;69237;-40
2023/04/25 15:04:22;;;;;;;4.10;1.80;;;;;;;27.69;19.34;98324.83;107360;1256;73694;-40
2023/04/25 15:06:49;;;;;;;3.20;1.90;;;;;;;27.88;18.98;98323.98;107270;1260;61327;-40
2023/04/25 15:09:16;;;;;;;2.70;1.60;;;;;;;28.01;17.82;98328.44;107328;1258;61333;-40
2023/04/25 15:11:43;;;;;;;3.20;1.80;;;;;;;27.89;17.74;98322.73;107312;1257;73968;-40
2023/04/25 15:14:10;;;;;;;3.00;1.70;;;;;;;27.90;17.74;98321.76;107317;1258;68968;-40
2023/04/25 15:16:37;;;;;;;4.00;2.00;;;;;;;27.94;17.96;98322.95;107273;1260;73727;-40
2023/04/25 15:19:05;;;;;;;2.80;1.90;;;;;;;27.95;18.48;98320.21;107251;1259;61235;-40
2023/04/25 15:21:32;;;;;;;3.20;1.90;;;;;;;27.96;18.18;98321.33;107261;1258;61341;-40
2023/04/25 15:24:00;;;;;;;6.10;1.90;;;;;;;27.88;18.02;98312.30;107331;1258;73979;-39
2023/04/25 15:26:27;;;;;;;3.20;1.80;;;;;;;27.65;18.31;98314.23;107188;1270;67641;-40
2023/04/25 15:28:55;;;;;;;2.50;1.60;;;;;;;27.38;18.68;98314.85;107285;1258;73672;-40
2023/04/25 15:31:22;;;;;;;3.20;1.80;;;;;;;27.21;19.23;98313.73;107362;1256;60183;-40
2023/04/25 15:33:49;;;;;;;3.00;2.00;;;;;;;27.14;19.16;98313.86;107296;1260;60320;-40
2023/04/25 15:36:18;;;;;;;2.80;2.30;;;;;;;26.95;19.32;98313.52;107296;1257;74032;-40
2023/04/25 15:38:45;;;;;;;3.20;2.10;;;;;;;26.57;19.74;98311.64;107339;1260;68957;-40
2023/04/25 15:41:12;;;;;;;3.40;1.80;;;;;;;26.17;20.03;98301.48;107316;1260;73880;-40
2023/04/25 15:43:39;;;;;;;4.30;2.20;;;;;;;25.82;20.37;98309.66;107339;1260;61577;-40
2023/04/25 15:46:06;;;;;;;6.30;2.30;;;;;;;25.40;20.64;98300.09;107326;1257;61564;-40
2023/04/25 15:48:34;;;;;;;2.50;2.00;;;;;;;25.00;21.33;98297.98;107335;1257;74076;-40
2023/04/25 15:51:01;;;;;;;3.80;2.40;;;;;;;24.54;21.80;98298.16;107300;1257;68894;-40
2023/04/25 15:53:28;;;;;;;4.00;2.10;;;;;;;24.07;22.06;98296.42;107224;1258;73852;-39
2023/04/25 15:55:55;;;;;;;4.80;2.50;;;;;;;23.62;22.84;98298.61;107140;1258;61420;-39
2023/04/25 15:58:23;;;;;;;4.40;2.20;;;;;;;23.20;23.37;98295.19;107233;1260;61254;-39
2023/04/25 16:00:50;;;;;;;4.00;2.30;;;;;;;22.84;23.79;98292.15;107276;1257;73992;-39
2023/04/25 16:03:17;;;;;;;5.40;2.40;;;;;;;22.46;24.11;98288.64;107266;1257;66823;-39
2023/04/25 16:05:44;;;;;;;8.60;2.80;;;;;;;22.17;24.88;98292.43;107280;1257;73653;-39
2023/04/25 16:08:12;;;;;;;5.60;2.40;;;;;;;21.98;24.78;98289.66;107329;1260;61078;-39
2023/04/25 16:10:39;;;;;;;5.60;2.70;;;;;;;21.75;24.99;98290.09;107277;1258;61318;-39
2023/04/25 16:13:07;;;;;;;4.10;2.60;;;;;;;21.54;25.58;98292.86;107291;1257;73953;-39
2023/04/25 16:15:34;;;;;;;4.20;2.40;;;;;;;21.39;25.99;98293.19;107263;1258;69106;-39
2023/04/25 16:18:02;;;;;;;3.90;2.50;;;;;;;21.27;26.00;98291.96;107359;1261;73623;-38
2023/04/25 16:20:30;;;;;;;4.60;2.70;;;;;;;21.15;26.23;98291.42;107355;1258;60353;-39
2023/04/25 16:22:57;;;;;;;4.00;2.50;;;;;;;21.07;26.89;98295.36;107239;1258;60511;-39
2023/04/25 16:25:24;;;;;;;6.30;2.70;;;;;;;20.92;26.69;98289.65;107306;1258;74255;-39
2023/04/25 16:27:51;;;;;;;4.60;2.40;;;;;;;20.70;26.57;98290.61;107350;1258;68779;-39
2023/04/25 16:30:18;;;;;;;4.30;2.40;;;;;;;20.50;27.00;98290.52;107281;1258;74346;-39
2023/04/25 16:32:45;;;;;;;4.10;2.80;;;;;;;20.34;27.42;98291.02;107308;1258;61490;-39
2023/04/25 16:35:12;;;;;;;4.10;2.10;;;;;;;20.23;27.50;98289.86;107341;1256;61597;-38
2023/04/25 16:37:39;;;;;;;5.80;2.90;;;;;;;20.11;27.78;98287.92;107294;1257;74277;-39
2023/04/25 16:40:08;;;;;;;5.40;3.20;;;;;;;19.98;27.72;98289.46;107696;1256;68377;-38
2023/04/25 16:42:35;;;;;;;4.20;2.50;;;;;;;19.82;27.97;98291.17;107690;1254;72673;-39
2023/04/25 16:45:04;;;;;;;8.50;3.10;;;;;;;19.69;28.15;98294.19;107641;1256;61552;-38
2023/04/25 16:47:31;;;;;;;3.60;2.50;;;;;;;19.56;28.83;98294.70;107747;1253;61236;-38
2023/04/25 16:49:59;;;;;;;6.30;2.40;;;;;;;19.43;28.79;98295.02;107649;1254;74127;-39
2023/04/25 16:52:26;;;;;;;4.00;2.60;;;;;;;19.30;28.96;98293.17;107625;1257;69197;-39
2023/04/25 16:54:53;;;;;;;7.10;2.60;;;;;;;19.19;29.14;98296.39;107529;1254;74024;-39
2023/04/25 16:57:20;;;;;;;4.70;2.40;;;;;;;19.06;29.57;98297.91;107599;1253;61491;-39
2023/04/25 16:59:49;;;;;;;6.60;2.90;;;;;;;18.95;29.80;98298.58;107593;1256;61341;-39
2023/04/25 17:02:16;;;;;;;4.50;2.00;;;;;;;18.85;30.48;98297.02;107546;1254;74322;-39
2023/04/25 17:04:43;;;;;;;4.60;2.40;;;;;;;18.73;30.86;98298.73;107645;1257;68890;-39
2023/04/25 17:07:11;;;;;;;4.30;2.20;;;;;;;18.61;31.15;98303.02;107651;1253;73018;-39
2023/04/25 17:09:38;;;;;;;4.80;2.50;;;;;;;18.47;31.55;98298.92;107660;1253;61555;-39
2023/04/25 17:12:06;;;;;;;3.60;2.20;;;;;;;18.36;31.76;98302.41;107671;1254;61623;-39
2023/04/25 17:14:34;;;;;;;10.00;2.30;;;;;;;18.22;32.15;98299.42;107624;1253;74656;-40
2023/04/25 17:17:02;;;;;;;3.80;1.90;;;;;;;18.10;32.53;98300.38;107660;1254;69141;-39
2023/04/25 17:19:30;;;;;;;6.10;2.70;;;;;;;18.00;32.96;98300.92;107740;1257;73697;-39
2023/04/25 17:21:57;;;;;;;8.90;3.40;;;;;;;17.88;33.42;98303.91;107713;1253;60159;-39
2023/04/25 17:24:24;;;;;;;7.20;3.10;;;;;;;17.76;33.69;98305.48;107679;1254;61525;-39
2023/04/25 17:26:51;;;;;;;4.80;3.00;;;;;;;17.64;33.92;98308.70;107683;1252;74165;-39
2023/04/25 17:29:20;;;;;;;8.40;3.40;;;;;;;17.53;34.11;98311.33;107681;1254;69598;-39
2023/04/25 17:31:47;;;;;;;8.90;3.50;;;;;;;17.42;34.46;98313.41;107686;1257;72329;-39
2023/04/25 17:34:16;;;;;;;9.00;4.00;;;;;;;17.30;35.00;98316.91;107671;1254;61371;-39
2023/04/25 17:36:44;;;;;;;11.40;3.50;;;;;;;17.18;35.52;98317.91;107711;1255;60166;-39
2023/04/25 17:39:13;;;;;;;9.90;3.70;;;;;;;17.05;35.97;98323.87;107707;1252;72697;-39
2023/04/25 17:41:40;;;;;;;8.80;3.60;;;;;;;16.91;36.00;98321.23;107683;1254;68810;-39
2023/04/25 17:44:07;;;;;;;12.50;3.40;;;;;;;16.78;36.00;98324.48;107706;1254;72689;-39
2023/04/25 17:46:36;;;;;;;11.60;3.90;;;;;;;16.66;36.05;98326.63;107664;1255;61601;-39
2023/04/25 17:49:03;;;;;;;11.50;4.30;;;;;;;16.56;36.38;98329.02;107722;1257;60361;-39
2023/04/25 17:51:31;;;;;;;8.20;4.20;;;;;;;16.47;36.60;98329.98;107699;1254;74030;-39
2023/04/25 17:53:58;;;;;;;9.70;3.80;;;;;;;16.39;36.96;98333.29;107577;1254;68912;-39
2023/04/25 17:56:25;;;;;;;9.20;3.90;;;;;;;16.34;37.20;98335.11;107737;1254;73879;-39
2023/04/25 17:58:54;;;;;;;8.10;4.20;;;;;;;16.29;37.31;98333.11;107726;1254;60024;-39
2023/04/25 18:01:22;;;;;;;7.80;3.90;;;;;;;16.24;37.44;98336.56;107700;1254;60194;-39
2023/04/25 18:03:50;;;;;;;10.40;3.90;;;;;;;16.18;37.38;98338.33;107563;1253;73927;-39
2023/04/25 18:06:18;;;;;;;8.80;4.00;;;;;;;16.10;37.37;98338.32;107618;1253;68078;-39
2023/04/25 18:08:45;;;;;;;7.40;4.80;;;;;;;16.03;37.51;98333.69;107586;1254;72628;-39
2023/04/25 18:11:12;;;;;;;9.70;4.50;;;;;;;15.99;37.63;98335.42;107588;1253;60424;-39
2023/04/25 18:13:40;;;;;;;9.90;4.30;;;;;;;15.93;37.84;98335.91;107566;1253;61251;-39
2023/04/25 18:16:07;;;;;;;10.10;4.60;;;;;;;15.88;38.01;98337.19;107649;1254;73662;-39
2023/04/25 18:18:35;;;;;;;7.60;4.80;;;;;;;15.83;38.11;98337.21;107634;1254;69024;-39
2023/04/25 18:21:04;;;;;;;9.40;4.90;;;;;;;15.77;38.34;98340.52;107670;1254;72678;-39
2023/04/25 18:23:34;;;;;;;8.30;5.10;;;;;;;15.66;38.57;98331.98;107631;1254;61524;-39
2023/04/25 18:26:02;;;;;;;6.10;4.00;;;;;;;15.64;38.72;98342.39;107675;1254;61375;-39
2023/04/25 18:28:33;;;;;;;8.30;4.20;;;;;;;15.58;39.14;98346.70;107671;1253;74064;-39
2023/04/25 18:31:00;;;;;;;7.40;4.40;;;;;;;15.51;39.23;98344.32;107666;1254;69116;-39
2023/04/25 18:33:27;;;;;;;7.90;5.30;;;;;;;15.44;39.23;98341.77;107701;1253;73704;-39
2023/04/25 18:35:55;;;;;;;8.90;4.60;;;;;;;15.37;39.35;98343.38;107536;1254;60309;-39